Time;durP1;ratioP1;P1;durP2;ratioP2;P2;SDS_P1;SDS_P2;PMS_P1;PMS_P2;Temp;Humidity;BMP_temperature;BMP_pressure;BME280_temperature;BME280_humidity;BME280_pressure;Samples;Min_cycle;Max_cycle;Signal;HPM_P1;HPM_P2
2024/01/01 00:01:47;;;;;;;257.73;166.70;;;6.60;99.90;;;;;;4978504;28;21004;-50
2024/01/01 00:04:13;;;;;;;219.73;143.07;;;6.60;99.90;;;;;;4998940;28;20224;-56
2024/01/01 00:06:40;;;;;;;223.10;142.60;;;6.50;99.90;;;;;;4987921;28;24106;-53
2024/01/01 00:09:07;;;;;;;217.60;140.13;;;6.50;99.90;;;;;;5008095;28;20347;-55
2024/01/01 00:11:37;;;;;;;205.20;134.07;;;6.50;99.90;;;;;;4999079;28;20196;-48
2024/01/01 00:14:04;;;;;;;203.07;134.03;;;6.50;99.90;;;;;;4991706;28;20222;-52
2024/01/01 00:16:30;;;;;;;221.57;145.07;;;6.40;99.90;;;;;;4966762;28;20204;-51
2024/01/01 00:18:58;;;;;;;254.97;165.00;;;6.40;99.90;;;;;;5001660;28;20208;-51
2024/01/01 00:21:24;;;;;;;271.63;177.43;;;6.40;99.90;;;;;;4985675;28;20667;-52
2024/01/01 00:23:51;;;;;;;262.03;173.17;;;6.30;99.90;;;;;;4999275;28;20231;-53
2024/01/01 00:26:18;;;;;;;236.37;158.50;;;6.30;99.90;;;;;;5003765;28;20220;-53
2024/01/01 00:28:46;;;;;;;233.87;150.67;;;6.30;99.90;;;;;;4993054;28;20968;-52
2024/01/01 00:31:13;;;;;;;203.97;132.00;;;6.20;99.90;;;;;;4968918;28;20703;-55
2024/01/01 00:33:40;;;;;;;192.17;129.73;;;6.20;99.90;;;;;;5002918;28;20211;-52
2024/01/01 00:36:09;;;;;;;187.37;117.87;;;6.10;99.90;;;;;;5004127;28;20258;-55
2024/01/01 00:38:36;;;;;;;166.27;112.57;;;6.10;99.90;;;;;;4987911;28;20274;-52
2024/01/01 00:41:02;;;;;;;157.43;100.97;;;6.10;99.90;;;;;;5000040;28;20204;-53
2024/01/01 00:43:29;;;;;;;135.87;88.43;;;6.00;99.90;;;;;;4995735;28;20232;-49
2024/01/01 00:45:56;;;;;;;128.87;84.53;;;6.00;99.90;;;;;;5006392;28;20611;-50
2024/01/01 00:48:23;;;;;;;114.83;73.23;;;6.00;99.90;;;;;;4970599;28;20232;-53
2024/01/01 00:50:50;;;;;;;104.40;63.10;;;6.00;99.90;;;;;;5000336;28;20239;-51
2024/01/01 00:53:18;;;;;;;93.97;60.97;;;5.90;99.90;;;;;;4997018;28;20231;-55
2024/01/01 00:55:46;;;;;;;90.13;57.93;;;5.90;99.90;;;;;;4988932;28;20221;-49
2024/01/01 00:58:13;;;;;;;86.43;54.67;;;5.90;99.90;;;;;;4995890;28;20204;-54
2024/01/01 01:00:40;;;;;;;83.40;52.10;;;5.90;99.90;;;;;;4998315;28;20193;-53
2024/01/01 01:03:07;;;;;;;77.97;49.10;;;5.80;99.90;;;;;;4979531;28;20609;-56
2024/01/01 01:05:34;;;;;;;82.80;50.50;;;5.80;99.90;;;;;;4996766;28;20197;-48
2024/01/01 01:08:01;;;;;;;74.73;47.57;;;5.80;99.90;;;;;;4997708;28;20193;-54
2024/01/01 01:10:29;;;;;;;69.47;42.30;;;5.70;99.90;;;;;;4982560;28;20496;-53
2024/01/01 01:12:56;;;;;;;71.73;41.77;;;5.70;99.90;;;;;;5001721;28;20723;-49
2024/01/01 01:15:27;;;;;;;62.13;37.07;;;5.70;99.90;;;;;;5003201;28;20223;-53
2024/01/01 01:17:55;;;;;;;55.47;34.90;;;5.70;99.90;;;;;;4981811;28;20728;-52
2024/01/01 01:20:22;;;;;;;55.03;33.80;;;5.70;99.90;;;;;;4999588;28;20208;-52
2024/01/01 01:22:49;;;;;;;51.07;32.10;;;5.70;99.90;;;;;;4998979;28;20777;-52
2024/01/01 01:25:16;;;;;;;45.83;29.73;;;5.80;99.90;;;;;;4986808;28;20300;-56
2024/01/01 01:27:44;;;;;;;43.33;29.30;;;5.80;99.90;;;;;;5011997;28;20201;-51
2024/01/01 01:30:12;;;;;;;43.03;26.70;;;5.80;99.90;;;;;;5001327;28;20221;-55
2024/01/01 01:32:39;;;;;;;41.60;26.20;;;5.80;99.90;;;;;;4975455;28;20208;-49
2024/01/01 01:35:06;;;;;;;39.83;25.57;;;5.80;99.90;;;;;;5005829;28;20207;-55
2024/01/01 01:37:33;;;;;;;40.83;24.67;;;5.80;99.90;;;;;;4993357;28;20193;-55
2024/01/01 01:40:00;;;;;;;37.87;23.63;;;5.90;99.90;;;;;;5004587;28;20197;-48
2024/01/01 01:42:28;;;;;;;31.13;21.17;;;5.90;99.90;;;;;;5002211;28;20192;-48
2024/01/01 01:44:56;;;;;;;40.80;22.57;;;5.90;99.90;;;;;;5012767;28;20279;-47
2024/01/01 01:47:24;;;;;;;35.40;21.23;;;5.90;99.90;;;;;;5000269;28;20810;-53
2024/01/01 01:49:51;;;;;;;34.87;20.47;;;6.00;99.90;;;;;;4984131;28;20220;-52
2024/01/01 01:52:19;;;;;;;28.97;18.40;;;6.00;99.90;;;;;;4995835;28;20204;-56
2024/01/01 01:54:50;;;;;;;26.60;17.37;;;6.00;99.90;;;;;;5000654;28;20225;-53
2024/01/01 01:57:17;;;;;;;25.53;17.03;;;6.00;99.90;;;;;;4992440;28;20197;-56
2024/01/01 01:59:44;;;;;;;25.67;16.83;;;6.00;99.90;;;;;;5006173;28;20558;-50
2024/01/01 02:02:13;;;;;;;27.53;16.33;;;6.00;99.90;;;;;;5002759;28;20545;-54
2024/01/01 02:04:40;;;;;;;27.33;15.93;;;6.00;99.90;;;;;;4968162;28;20225;-52
2024/01/01 02:07:06;;;;;;;27.30;14.97;;;6.00;99.90;;;;;;5011047;28;20201;-55
2024/01/01 02:09:33;;;;;;;23.07;15.57;;;6.00;99.90;;;;;;5001453;28;20220;-53
2024/01/01 02:12:00;;;;;;;24.37;14.63;;;6.00;99.90;;;;;;5001883;28;20203;-52
2024/01/01 02:14:27;;;;;;;24.40;15.40;;;6.00;99.90;;;;;;4995994;28;20231;-48
2024/01/01 02:16:54;;;;;;;26.10;14.33;;;5.90;99.90;;;;;;5004376;28;20196;-55
2024/01/01 02:19:24;;;;;;;22.70;13.23;;;5.90;99.90;;;;;;4965341;28;20900;-54
2024/01/01 02:21:52;;;;;;;19.37;13.30;;;5.90;99.90;;;;;;5014124;28;20200;-51
2024/01/01 02:24:21;;;;;;;21.27;12.73;;;5.90;99.90;;;;;;5000047;28;20220;-54
2024/01/01 02:26:49;;;;;;;16.47;10.60;;;5.90;99.90;;;;;;5005309;28;20193;-47
2024/01/01 02:29:16;;;;;;;22.23;11.60;;;5.90;99.90;;;;;;4995495;28;20219;-54
2024/01/01 02:31:43;;;;;;;19.87;11.40;;;6.00;99.90;;;;;;5004452;28;20220;-54
2024/01/01 02:34:10;;;;;;;19.87;11.23;;;5.90;99.90;;;;;;4994036;28;20228;-54
2024/01/01 02:36:39;;;;;;;17.87;10.37;;;5.90;99.90;;;;;;4972947;28;20204;-53
2024/01/01 02:39:06;;;;;;;20.50;10.70;;;5.90;99.90;;;;;;5006111;28;20672;-54
2024/01/01 02:41:36;;;;;;;14.67;9.20;;;5.90;99.90;;;;;;5000802;28;20799;-49
2024/01/01 02:44:03;;;;;;;15.37;9.00;;;5.90;99.90;;;;;;5007053;28;20266;-52
2024/01/01 02:46:30;;;;;;;13.00;8.17;;;5.90;99.90;;;;;;4993709;28;20197;-54
2024/01/01 02:48:57;;;;;;;14.13;9.40;;;6.00;99.90;;;;;;4997990;28;20224;-51
2024/01/01 02:51:24;;;;;;;12.63;8.67;;;5.90;99.90;;;;;;4971751;28;21204;-49
2024/01/01 02:53:51;;;;;;;14.73;7.97;;;5.90;99.90;;;;;;5006780;28;20212;-49
2024/01/01 02:56:18;;;;;;;11.30;7.47;;;5.90;99.90;;;;;;4997688;28;20192;-56
2024/01/01 02:58:47;;;;;;;10.53;7.60;;;5.90;99.90;;;;;;4999704;28;20710;-53
2024/01/01 03:01:14;;;;;;;8.57;6.67;;;5.90;99.90;;;;;;4981938;28;20201;-54
2024/01/01 03:03:41;;;;;;;12.83;7.63;;;5.80;99.90;;;;;;4999218;28;20208;-52
2024/01/01 03:06:08;;;;;;;15.60;7.20;;;5.80;99.90;;;;;;5000971;28;20219;-57
2024/01/01 03:08:37;;;;;;;10.50;5.93;;;5.80;99.90;;;;;;4979133;28;20200;-49
2024/01/01 03:11:05;;;;;;;13.23;7.20;;;5.80;99.90;;;;;;5005073;28;20294;-52
2024/01/01 03:13:32;;;;;;;10.83;6.50;;;5.80;99.90;;;;;;4990574;28;20266;-52
2024/01/01 03:16:01;;;;;;;12.20;6.57;;;5.90;99.90;;;;;;4991174;28;20208;-51
2024/01/01 03:18:27;;;;;;;10.20;6.50;;;5.90;99.90;;;;;;5006600;28;20259;-50
2024/01/01 03:20:54;;;;;;;10.67;5.73;;;5.90;99.90;;;;;;5000870;28;20231;-52
2024/01/01 03:23:21;;;;;;;10.63;6.80;;;5.80;99.90;;;;;;4976019;28;20239;-55
2024/01/01 03:25:48;;;;;;;10.13;6.47;;;5.80;99.90;;;;;;5001728;28;20697;-50
2024/01/01 03:28:15;;;;;;;13.00;6.63;;;5.80;99.90;;;;;;4990223;28;20205;-53
2024/01/01 03:30:42;;;;;;;12.90;7.40;;;5.80;99.90;;;;;;4991460;28;20225;-48
2024/01/01 03:33:10;;;;;;;12.30;6.73;;;5.80;99.90;;;;;;5009538;28;20217;-55
2024/01/01 03:35:37;;;;;;;15.17;7.60;;;5.80;99.90;;;;;;4997492;28;20206;-52
2024/01/01 03:38:04;;;;;;;12.10;7.50;;;5.90;99.90;;;;;;4977620;28;20281;-54
2024/01/01 03:40:31;;;;;;;11.77;7.13;;;6.00;99.90;;;;;;4996624;28;21072;-53
2024/01/01 03:42:58;;;;;;;12.27;8.00;;;6.00;99.90;;;;;;4994238;28;20193;-51
2024/01/01 03:45:25;;;;;;;12.40;6.87;;;6.10;99.90;;;;;;4997238;28;20471;-50
2024/01/01 03:47:52;;;;;;;11.93;7.17;;;6.10;99.90;;;;;;5001351;28;20200;-51
2024/01/01 03:50:20;;;;;;;10.50;7.40;;;6.20;99.90;;;;;;5002824;28;20220;-54
2024/01/01 03:52:47;;;;;;;15.20;7.57;;;6.30;99.90;;;;;;4974662;28;20209;-49
2024/01/01 03:55:15;;;;;;;10.17;7.70;;;6.30;99.90;;;;;;4990150;28;20201;-55
2024/01/01 03:57:42;;;;;;;12.60;8.03;;;6.30;99.90;;;;;;4988591;28;20197;-52
2024/01/01 04:00:11;;;;;;;14.20;7.27;;;6.40;99.90;;;;;;4997000;28;20193;-55
2024/01/01 04:02:39;;;;;;;12.27;8.40;;;6.40;99.90;;;;;;4984624;28;20216;-49
2024/01/01 04:05:07;;;;;;;17.30;7.83;;;6.50;99.90;;;;;;5003784;28;20204;-53
2024/01/01 04:07:36;;;;;;;15.60;8.10;;;6.50;99.90;;;;;;4997944;28;20271;-54
2024/01/01 04:10:05;;;;;;;10.87;7.67;;;6.50;99.90;;;;;;4972448;28;20298;-51
2024/01/01 04:12:31;;;;;;;12.43;8.17;;;6.50;99.90;;;;;;4994842;28;20251;-51
2024/01/01 04:14:58;;;;;;;11.63;7.63;;;6.60;99.90;;;;;;5000606;28;20266;-51
2024/01/01 04:17:25;;;;;;;13.43;8.23;;;6.60;99.90;;;;;;5002450;28;20929;-52
2024/01/01 04:19:53;;;;;;;14.00;7.83;;;6.60;99.90;;;;;;5000542;28;20247;-48
2024/01/01 04:22:20;;;;;;;11.60;7.73;;;6.70;99.90;;;;;;4996611;28;20632;-54
2024/01/01 04:24:49;;;;;;;14.83;7.63;;;6.70;99.90;;;;;;4969504;28;20311;-52
2024/01/01 04:27:15;;;;;;;13.70;8.07;;;6.70;99.90;;;;;;4998323;28;20212;-55
2024/01/01 04:29:42;;;;;;;12.03;7.97;;;6.70;99.90;;;;;;5000555;28;20216;-49
2024/01/01 04:32:09;;;;;;;10.90;7.83;;;6.80;99.90;;;;;;5000644;28;20271;-55
2024/01/01 04:34:36;;;;;;;14.77;8.20;;;6.80;99.90;;;;;;4993353;28;20307;-51
2024/01/01 04:37:03;;;;;;;16.73;9.10;;;6.90;99.90;;;;;;4993784;28;20193;-53
2024/01/01 04:39:30;;;;;;;13.27;8.07;;;6.90;99.90;;;;;;4963918;28;21518;-52
2024/01/01 04:41:58;;;;;;;14.50;8.43;;;6.90;99.90;;;;;;5003305;28;20250;-49
2024/01/01 04:44:25;;;;;;;15.43;8.43;;;6.90;99.90;;;;;;5002754;28;20215;-52
2024/01/01 04:46:52;;;;;;;16.50;8.63;;;6.90;99.90;;;;;;5001274;28;20225;-49
2024/01/01 04:49:19;;;;;;;12.57;8.57;;;7.00;99.90;;;;;;4994350;28;20200;-55
2024/01/01 04:51:46;;;;;;;11.73;7.80;;;6.90;99.90;;;;;;5007974;28;20209;-53
2024/01/01 04:54:13;;;;;;;12.73;8.83;;;7.00;99.90;;;;;;5000372;28;20227;-53
2024/01/01 04:56:39;;;;;;;12.67;8.03;;;7.00;99.90;;;;;;4983723;28;20204;-48
2024/01/01 04:59:08;;;;;;;12.67;8.23;;;7.00;99.90;;;;;;5008362;28;20673;-54
2024/01/01 05:01:35;;;;;;;12.03;8.27;;;7.00;99.90;;;;;;5002698;28;20184;-56
2024/01/01 05:04:02;;;;;;;13.83;9.07;;;7.00;99.90;;;;;;5002749;28;20225;-52
2024/01/01 05:06:29;;;;;;;16.73;9.50;;;7.00;99.90;;;;;;4981999;28;20220;-53
2024/01/01 05:08:56;;;;;;;17.37;8.80;;;7.00;99.90;;;;;;5005021;28;20212;-48
2024/01/01 05:11:23;;;;;;;16.10;9.03;;;7.00;99.90;;;;;;4972568;28;21190;-55
2024/01/01 05:13:49;;;;;;;15.47;8.77;;;7.00;99.90;;;;;;5009009;28;20220;-49
2024/01/01 05:16:19;;;;;;;12.53;8.07;;;7.00;99.90;;;;;;5001358;28;20263;-55
2024/01/01 05:18:45;;;;;;;17.33;9.27;;;7.10;99.90;;;;;;4997232;28;20201;-55
2024/01/01 05:21:12;;;;;;;10.77;7.77;;;7.10;99.90;;;;;;4992084;28;20603;-57
2024/01/01 05:23:39;;;;;;;13.77;8.57;;;7.00;99.90;;;;;;5002617;28;20256;-53
2024/01/01 05:26:07;;;;;;;11.60;8.30;;;7.10;99.90;;;;;;5003946;28;20653;-53
2024/01/01 05:28:34;;;;;;;13.93;8.10;;;7.10;99.90;;;;;;4981908;28;20211;-50
2024/01/01 05:31:01;;;;;;;16.37;8.23;;;7.10;99.90;;;;;;5002237;28;20240;-53
2024/01/01 05:33:29;;;;;;;11.83;7.73;;;7.10;99.90;;;;;;4993515;28;20204;-51
2024/01/01 05:35:56;;;;;;;13.53;7.77;;;7.10;99.90;;;;;;5002006;28;20266;-51
2024/01/01 05:38:23;;;;;;;11.17;7.77;;;7.10;99.90;;;;;;4989658;28;20193;-51
2024/01/01 05:40:49;;;;;;;10.07;7.73;;;7.10;99.90;;;;;;5004269;28;20188;-51
2024/01/01 05:43:16;;;;;;;13.63;7.30;;;7.20;99.90;;;;;;4977441;28;20734;-56
2024/01/01 05:45:44;;;;;;;14.67;7.83;;;7.20;99.90;;;;;;5002471;28;20213;-55
2024/01/01 05:48:11;;;;;;;9.27;6.53;;;7.20;99.90;;;;;;4995004;28;20971;-53
2024/01/01 05:50:39;;;;;;;10.53;7.67;;;7.20;99.90;;;;;;5001770;28;20216;-53
2024/01/01 05:53:06;;;;;;;11.13;7.13;;;7.20;99.90;;;;;;4995296;28;20396;-54
2024/01/01 05:55:33;;;;;;;16.97;7.70;;;7.20;99.90;;;;;;5004931;28;20251;-49
2024/01/01 05:58:00;;;;;;;12.63;6.93;;;7.30;99.90;;;;;;5007552;28;20270;-49
2024/01/01 06:00:29;;;;;;;9.60;6.27;;;7.20;99.90;;;;;;4978674;28;20250;-52
2024/01/01 06:02:55;;;;;;;12.27;7.73;;;7.30;99.90;;;;;;4999332;28;20203;-51
2024/01/01 06:05:22;;;;;;;12.73;6.90;;;7.30;99.90;;;;;;4999841;28;20188;-48
2024/01/01 06:07:51;;;;;;;8.43;6.30;;;7.30;99.90;;;;;;5003488;28;20192;-49
2024/01/01 06:10:18;;;;;;;12.17;6.47;;;7.30;99.90;;;;;;5001600;28;20577;-56
2024/01/01 06:12:44;;;;;;;12.07;7.10;;;7.30;99.90;;;;;;5001406;28;20196;-52
2024/01/01 06:15:12;;;;;;;8.63;5.73;;;7.40;99.90;;;;;;4974541;28;20883;-54
2024/01/01 06:17:39;;;;;;;10.53;6.07;;;7.40;99.90;;;;;;5009186;28;20201;-50
2024/01/01 06:20:07;;;;;;;7.83;5.57;;;7.40;99.90;;;;;;5003147;28;20653;-55
2024/01/01 06:22:34;;;;;;;8.23;5.33;;;7.40;99.90;;;;;;4999845;28;20821;-51
2024/01/01 06:25:02;;;;;;;9.60;5.63;;;7.50;99.90;;;;;;4991642;28;20252;-50
2024/01/01 06:27:29;;;;;;;11.67;5.80;;;7.50;99.90;;;;;;4994494;28;20615;-52
2024/01/01 06:29:58;;;;;;;11.13;5.03;;;7.50;99.90;;;;;;4996325;28;20758;-50
2024/01/01 06:32:24;;;;;;;10.27;5.90;;;7.50;99.90;;;;;;4976038;28;20259;-52
2024/01/01 06:34:51;;;;;;;10.70;5.20;;;7.50;99.90;;;;;;5004275;28;20212;-51
2024/01/01 06:37:18;;;;;;;9.33;4.97;;;7.50;99.90;;;;;;4999979;28;20197;-55
2024/01/01 06:39:45;;;;;;;7.60;5.17;;;7.50;99.90;;;;;;4990883;28;20224;-52
2024/01/01 06:42:15;;;;;;;10.03;5.13;;;7.60;99.90;;;;;;4994680;28;20201;-55
2024/01/01 06:44:42;;;;;;;8.10;4.00;;;7.60;99.90;;;;;;4998426;28;20224;-50
2024/01/01 06:47:09;;;;;;;7.13;4.23;;;7.60;99.90;;;;;;4980730;28;20211;-55
2024/01/01 06:49:36;;;;;;;11.67;4.17;;;7.50;99.90;;;;;;5007496;28;20181;-50
2024/01/01 06:52:03;;;;;;;8.97;4.20;;;7.50;99.90;;;;;;5006038;28;20628;-53
2024/01/01 06:54:30;;;;;;;9.63;3.90;;;7.50;99.90;;;;;;4994996;28;20234;-51
2024/01/01 06:56:57;;;;;;;10.67;4.07;;;7.40;99.90;;;;;;4983692;28;20260;-51
2024/01/01 06:59:28;;;;;;;6.73;4.40;;;7.40;99.90;;;;;;4999114;28;20258;-49
2024/01/01 07:01:57;;;;;;;10.90;4.20;;;7.40;99.90;;;;;;5007219;28;20197;-49
2024/01/01 07:04:24;;;;;;;5.87;3.37;;;7.40;99.90;;;;;;4984869;28;21065;-50
2024/01/01 07:06:51;;;;;;;6.97;3.60;;;7.40;99.90;;;;;;5006533;28;20273;-48
2024/01/01 07:09:18;;;;;;;4.93;3.70;;;7.30;99.90;;;;;;4994582;28;20196;-54
2024/01/01 07:11:46;;;;;;;4.33;3.23;;;7.30;99.90;;;;;;4984376;28;20731;-47
2024/01/01 07:14:12;;;;;;;6.80;3.30;;;7.30;99.90;;;;;;5004831;28;20298;-54
2024/01/01 07:16:41;;;;;;;5.67;3.27;;;7.30;99.90;;;;;;5007298;28;20266;-53
2024/01/01 07:19:08;;;;;;;7.33;3.83;;;7.30;99.90;;;;;;4968662;28;20207;-51
2024/01/01 07:21:35;;;;;;;5.33;3.20;;;7.30;99.90;;;;;;5000762;28;20224;-53
2024/01/01 07:24:01;;;;;;;7.90;3.53;;;7.30;99.90;;;;;;4991557;28;20235;-52
2024/01/01 07:26:28;;;;;;;3.73;3.30;;;7.30;99.90;;;;;;4986788;28;20231;-50
2024/01/01 07:28:55;;;;;;;6.37;3.67;;;7.20;99.90;;;;;;5004725;28;20200;-57
2024/01/01 07:31:22;;;;;;;9.03;3.50;;;7.20;99.90;;;;;;5002209;28;20208;-50
2024/01/01 07:33:50;;;;;;;6.80;3.23;;;7.20;99.90;;;;;;4973801;28;20217;-54
2024/01/01 07:36:17;;;;;;;8.80;3.60;;;7.30;99.90;;;;;;4997699;28;20209;-51
2024/01/01 07:38:44;;;;;;;8.40;3.20;;;7.30;99.90;;;;;;4993334;28;20362;-59
2024/01/01 07:41:11;;;;;;;5.93;3.53;;;7.30;99.90;;;;;;5001197;28;20193;-51
2024/01/01 07:43:39;;;;;;;6.83;3.27;;;7.30;99.90;;;;;;4998649;28;20560;-53
2024/01/01 07:46:09;;;;;;;4.70;2.90;;;7.30;99.90;;;;;;5002883;28;20199;-49
2024/01/01 07:48:36;;;;;;;6.57;3.70;;;7.30;99.90;;;;;;5004199;28;20224;-49
2024/01/01 07:51:04;;;;;;;6.40;3.03;;;7.30;99.90;;;;;;4968484;28;20210;-53
2024/01/01 07:53:32;;;;;;;5.83;3.70;;;7.30;99.90;;;;;;4997080;28;20603;-51
2024/01/01 07:56:01;;;;;;;5.53;3.70;;;7.30;99.90;;;;;;5003665;28;20207;-49
2024/01/01 07:58:28;;;;;;;7.63;3.67;;;7.30;99.90;;;;;;4997713;28;20207;-52
2024/01/01 08:00:55;;;;;;;6.73;3.23;;;7.30;99.90;;;;;;4996369;28;20189;-56
2024/01/01 08:03:22;;;;;;;4.53;3.13;;;7.30;99.90;;;;;;5003498;28;20964;-53
2024/01/01 08:05:48;;;;;;;7.33;3.00;;;7.30;99.90;;;;;;4964476;28;20618;-55
2024/01/01 08:08:17;;;;;;;4.93;3.33;;;7.30;99.90;;;;;;5000454;28;20298;-52
2024/01/01 08:10:44;;;;;;;4.27;2.93;;;7.30;99.90;;;;;;4990116;28;20973;-56
2024/01/01 08:13:11;;;;;;;5.50;3.50;;;7.30;99.90;;;;;;4989890;28;20220;-53
2024/01/01 08:15:38;;;;;;;4.20;2.50;;;7.30;99.90;;;;;;4994670;28;20272;-55
2024/01/01 08:18:06;;;;;;;3.73;2.63;;;7.30;99.90;;;;;;4996464;28;20324;-51
2024/01/01 08:20:33;;;;;;;4.90;2.63;;;7.40;99.90;;;;;;4967957;28;20201;-54
2024/01/01 08:22:59;;;;;;;4.70;2.60;;;7.40;99.90;;;;;;5007389;28;20838;-50
2024/01/01 08:25:28;;;;;;;4.93;2.77;;;7.40;99.90;;;;;;5007801;28;20656;-51
2024/01/01 08:27:54;;;;;;;6.27;2.87;;;7.40;99.90;;;;;;4992417;28;20205;-51
2024/01/01 08:30:21;;;;;;;6.40;2.50;;;7.40;99.90;;;;;;5014108;28;20200;-50
2024/01/01 08:32:48;;;;;;;5.80;3.07;;;7.40;99.90;;;;;;4990328;28;20986;-54
2024/01/01 08:35:15;;;;;;;4.70;2.63;;;7.40;99.90;;;;;;4976018;28;20661;-52
2024/01/01 08:37:43;;;;;;;6.40;3.00;;;7.40;99.90;;;;;;5006706;28;20200;-55
2024/01/01 08:40:11;;;;;;;7.27;3.00;;;7.40;99.90;;;;;;4999374;28;20196;-49
2024/01/01 08:42:40;;;;;;;7.20;2.73;;;7.50;99.90;;;;;;5002815;28;20254;-50
2024/01/01 08:45:09;;;;;;;5.83;2.57;;;7.50;99.90;;;;;;4991603;28;20309;-54
2024/01/01 08:47:36;;;;;;;4.40;2.90;;;7.50;99.90;;;;;;5002969;28;20207;-56
2024/01/01 08:50:03;;;;;;;10.07;3.40;;;7.50;99.90;;;;;;5010735;28;20684;-50
2024/01/01 08:52:29;;;;;;;8.53;3.20;;;7.50;99.90;;;;;;4990695;28;20227;-55
2024/01/01 08:54:56;;;;;;;6.63;2.83;;;7.50;99.90;;;;;;5006011;28;20212;-54
2024/01/01 08:57:23;;;;;;;9.23;2.60;;;7.50;99.90;;;;;;5003386;28;20255;-57
2024/01/01 08:59:51;;;;;;;6.60;2.67;;;7.50;99.90;;;;;;4980535;28;21536;-55
2024/01/01 09:02:18;;;;;;;6.57;2.60;;;7.50;99.90;;;;;;5000104;28;20267;-54
2024/01/01 09:04:45;;;;;;;6.73;3.27;;;7.50;99.90;;;;;;4983602;28;20689;-50
2024/01/01 09:07:12;;;;;;;1.90;1.70;;;7.40;99.90;;;;;;4987355;28;20209;-57
2024/01/01 09:09:38;;;;;;;6.23;2.80;;;7.40;99.90;;;;;;4999025;28;20212;-53
2024/01/01 09:12:06;;;;;;;4.60;2.60;;;7.30;99.90;;;;;;5008793;28;20212;-53
2024/01/01 09:14:34;;;;;;;7.13;2.20;;;7.30;99.90;;;;;;4988466;28;20229;-53
2024/01/01 09:17:03;;;;;;;6.20;2.50;;;7.30;99.90;;;;;;4978763;28;20615;-54
2024/01/01 09:19:30;;;;;;;5.80;2.27;;;7.20;99.90;;;;;;5001672;28;20299;-47
2024/01/01 09:21:57;;;;;;;4.23;2.67;;;7.20;99.90;;;;;;4963773;28;20197;-48
2024/01/01 09:24:24;;;;;;;7.00;2.63;;;7.20;99.90;;;;;;5002849;28;20637;-55
2024/01/01 09:26:51;;;;;;;7.73;2.83;;;7.10;99.90;;;;;;4989904;28;20205;-57
2024/01/01 09:29:18;;;;;;;4.47;2.30;;;7.10;99.90;;;;;;4989807;28;20196;-52
2024/01/01 09:31:45;;;;;;;4.17;2.23;;;7.00;99.90;;;;;;4992176;28;20237;-59
2024/01/01 09:34:13;;;;;;;5.73;2.70;;;7.00;99.90;;;;;;5000010;28;20223;-50
2024/01/01 09:36:41;;;;;;;7.00;3.13;;;7.00;99.90;;;;;;4988864;28;20204;-53
2024/01/01 09:39:09;;;;;;;5.93;2.87;;;7.00;99.90;;;;;;4991818;28;20213;-48
2024/01/01 09:41:36;;;;;;;4.67;2.73;;;7.00;99.90;;;;;;4997462;28;20553;-53
2024/01/01 09:44:03;;;;;;;5.77;2.77;;;7.00;99.90;;;;;;4987372;28;20232;-48
2024/01/01 09:46:33;;;;;;;7.90;2.83;;;6.90;99.90;;;;;;5006515;28;20205;-51
2024/01/01 09:49:00;;;;;;;5.43;2.97;;;6.90;99.90;;;;;;4982925;28;20766;-49
2024/01/01 09:51:28;;;;;;;6.40;3.10;;;6.90;99.90;;;;;;4993818;28;20211;-52
2024/01/01 09:53:55;;;;;;;5.13;2.53;;;7.00;99.90;;;;;;4972915;28;20311;-55
2024/01/01 09:56:22;;;;;;;7.77;2.63;;;6.90;99.90;;;;;;5002335;28;20605;-55
2024/01/01 09:58:49;;;;;;;10.10;2.70;;;6.90;99.90;;;;;;5004799;28;20258;-55
2024/01/01 10:01:18;;;;;;;8.73;2.70;;;6.90;99.90;;;;;;5003676;28;20188;-52
2024/01/01 10:04:01;;;;;;;11.77;2.90;;;6.90;99.90;;;;;;4985778;28;20228;-56
2024/01/01 10:06:30;;;;;;;4.60;2.67;;;6.90;99.90;;;;;;5001838;28;20196;-48
2024/01/01 10:09:06;;;;;;;6.63;2.40;;;6.90;99.90;;;;;;4968787;28;20669;-54
2024/01/01 10:11:33;;;;;;;6.70;3.17;;;6.90;99.90;;;;;;4995397;28;20218;-48
2024/01/01 10:14:04;;;;;;;7.33;2.83;;;6.90;99.90;;;;;;5003306;28;20901;-54
2024/01/01 10:16:31;;;;;;;6.67;3.73;;;6.90;99.90;;;;;;4999222;28;20201;-49
2024/01/01 10:19:00;;;;;;;9.13;2.73;;;6.90;99.90;;;;;;4980057;28;20307;-52
2024/01/01 10:21:29;;;;;;;4.43;3.00;;;6.90;99.90;;;;;;5000900;28;20196;-54
2024/01/01 10:23:56;;;;;;;4.33;2.97;;;6.90;99.90;;;;;;4970683;28;20228;-55
2024/01/01 10:26:22;;;;;;;6.77;2.83;;;6.90;99.90;;;;;;5000014;28;20274;-48
2024/01/01 10:28:49;;;;;;;7.90;2.73;;;6.90;99.90;;;;;;5002713;28;20271;-56
2024/01/01 10:31:16;;;;;;;6.80;2.80;;;6.90;99.90;;;;;;4996944;28;20815;-50
2024/01/01 10:33:48;;;;;;;10.37;3.40;;;7.00;99.90;;;;;;5008080;28;20278;-55
2024/01/01 10:36:16;;;;;;;5.80;2.83;;;7.00;99.90;;;;;;4974239;28;20655;-57
2024/01/01 10:38:45;;;;;;;10.30;2.80;;;7.00;99.90;;;;;;4965041;28;20207;-58
2024/01/01 10:41:12;;;;;;;7.70;2.73;;;7.10;99.90;;;;;;4989214;28;20351;-49
2024/01/01 10:43:40;;;;;;;6.27;2.50;;;7.10;99.90;;;;;;5002018;28;20217;-57
2024/01/01 10:46:07;;;;;;;6.10;2.40;;;7.10;99.90;;;;;;4990401;28;20255;-52
2024/01/01 10:48:36;;;;;;;5.60;2.37;;;7.10;99.90;;;;;;4994955;28;20216;-48
2024/01/01 10:51:35;;;;;;;5.57;1.83;;;7.20;99.90;;;;;;4972677;28;20205;-52
2024/01/01 10:54:50;;;;;;;6.43;2.33;;;7.20;99.90;;;;;;4971778;28;20307;-49
2024/01/01 10:57:29;;;;;;;6.27;2.17;;;7.30;99.90;;;;;;4978972;28;20215;-49
2024/01/01 11:00:05;;;;;;;6.03;2.63;;;7.30;99.90;;;;;;5001945;28;20185;-48
2024/01/01 11:02:32;;;;;;;6.83;1.50;;;7.40;99.90;;;;;;4986152;28;20207;-53
2024/01/01 11:05:10;;;;;;;9.70;2.50;;;7.40;99.90;;;;;;4972847;28;20306;-53
2024/01/01 11:07:59;;;;;;;10.50;2.33;;;7.40;99.90;;;;;;5000406;28;20192;-54
2024/01/01 11:10:38;;;;;;;7.60;2.27;;;7.50;99.90;;;;;;4974896;28;20209;-51
2024/01/01 11:13:05;;;;;;;2.27;1.70;;;7.60;99.90;;;;;;4995715;28;20227;-50
2024/01/01 11:15:40;;;;;;;8.57;2.50;;;7.60;99.90;;;;;;4993938;28;20211;-57
2024/01/01 11:18:16;;;;;;;4.97;1.70;;;7.60;99.90;;;;;;5000359;28;20203;-51
2024/01/01 11:20:48;;;;;;;6.57;1.90;;;7.70;99.90;;;;;;4993085;28;20218;-57
2024/01/01 11:23:41;;;;;;;5.47;1.97;;;7.60;99.90;;;;;;5010691;28;20482;-53
2024/01/01 11:26:30;;;;;;;7.13;2.07;;;7.60;99.90;;;;;;4984283;28;20205;-49
2024/01/01 11:28:59;;;;;;;3.90;1.93;;;7.70;99.90;;;;;;4995185;28;20207;-52
2024/01/01 11:31:26;;;;;;;11.10;2.83;;;7.60;99.90;;;;;;4997513;28;20263;-53
2024/01/01 11:34:00;;;;;;;7.90;2.13;;;7.70;99.90;;;;;;4986875;28;20283;-53
2024/01/01 11:36:28;;;;;;;5.47;2.03;;;7.70;99.90;;;;;;5004379;28;20659;-49
2024/01/01 11:38:55;;;;;;;5.77;1.97;;;7.70;99.90;;;;;;4985833;28;20197;-48
2024/01/01 11:41:23;;;;;;;5.70;2.27;;;7.70;99.90;;;;;;4996055;28;20197;-56
2024/01/01 11:43:51;;;;;;;5.10;1.73;;;7.70;99.90;;;;;;4969214;28;20232;-49
2024/01/01 11:46:26;;;;;;;4.10;1.67;;;7.80;99.90;;;;;;4993284;28;20197;-55
2024/01/01 11:49:00;;;;;;;5.63;1.50;;;7.70;99.90;;;;;;4986276;28;20246;-51
2024/01/01 11:51:30;;;;;;;7.37;1.90;;;7.70;99.90;;;;;;4992848;28;20196;-55
2024/01/01 11:54:10;;;;;;;5.67;1.77;;;7.80;99.90;;;;;;4986946;28;20242;-53
2024/01/01 11:56:38;;;;;;;10.43;2.50;;;7.80;99.90;;;;;;5001673;28;20183;-53
2024/01/01 11:59:07;;;;;;;8.53;2.53;;;7.80;99.90;;;;;;4963496;28;20205;-53
2024/01/01 12:01:35;;;;;;;9.67;1.90;;;7.80;99.90;;;;;;4985560;28;20200;-50
2024/01/01 12:04:05;;;;;;;5.90;2.40;;;7.80;99.90;;;;;;4995425;28;20687;-51
2024/01/01 12:06:32;;;;;;;6.27;2.13;;;7.80;99.90;;;;;;4992819;28;20218;-51
2024/01/01 12:09:08;;;;;;;9.40;2.40;;;7.80;99.90;;;;;;4998306;28;20216;-49
2024/01/01 12:11:36;;;;;;;7.43;2.20;;;7.80;99.90;;;;;;4996353;28;20204;-52
2024/01/01 12:14:04;;;;;;;4.20;2.03;;;7.80;99.90;;;;;;4970047;28;20768;-52
2024/01/01 12:16:32;;;;;;;8.30;2.60;;;7.80;99.90;;;;;;4983596;28;20281;-56
2024/01/01 12:19:01;;;;;;;9.07;2.17;;;7.80;99.90;;;;;;4994902;28;20209;-49
2024/01/01 12:21:38;;;;;;;12.00;2.10;;;7.80;99.90;;;;;;4990713;28;20199;-56
2024/01/01 12:24:08;;;;;;;5.93;2.20;;;7.70;99.90;;;;;;4989999;28;20238;-48
2024/01/01 12:26:34;;;;;;;7.07;1.80;;;7.70;99.90;;;;;;4989654;28;20782;-53
2024/01/01 12:29:15;;;;;;;6.47;2.13;;;7.60;99.90;;;;;;4995115;28;20196;-53
2024/01/01 12:31:44;;;;;;;5.00;1.90;;;7.70;99.90;;;;;;4976602;28;20192;-53
2024/01/01 12:34:15;;;;;;;4.37;2.20;;;7.60;99.90;;;;;;5002042;28;20224;-49
2024/01/01 12:36:43;;;;;;;7.37;2.07;;;7.60;99.90;;;;;;4994082;28;20208;-52
2024/01/01 12:39:10;;;;;;;4.90;2.10;;;7.60;99.90;;;;;;4997952;28;20205;-53
2024/01/01 12:41:37;;;;;;;6.87;2.17;;;7.70;99.90;;;;;;4992626;28;20220;-50
2024/01/01 12:44:05;;;;;;;7.53;2.00;;;7.70;99.90;;;;;;4997092;28;20300;-52
2024/01/01 12:46:32;;;;;;;5.50;1.97;;;7.70;99.90;;;;;;4963936;28;20697;-55
2024/01/01 12:49:01;;;;;;;10.23;2.57;;;7.70;99.90;;;;;;5010310;28;20680;-51
2024/01/01 12:51:30;;;;;;;5.73;2.90;;;7.70;99.90;;;;;;4993795;28;20212;-55
2024/01/01 12:53:58;;;;;;;8.30;3.67;;;7.70;99.90;;;;;;4972866;28;20311;-55